TNCM

Princess Juliana International Airport

Philipsburg, , Netherlands Antilles
TNCM 190539Z 1906/2006 06012KT P6SM VCSH SCT018
Issued Valid From Valid To
Oct-19 @ 05:39 UTC
(4 hours ago)
Oct-19 @ 06:00 UTC
(4 hours ago)
Oct-20 @ 06:00 UTC
(in 20 hours)
Oct-19 @ 06:00 to Oct-20 @ 06:00
TNCM 190539Z 1906/2006 06012KT P6SM VCSH SCT018
Wind Visibility Clouds
60° at 12 knots 10,000+ meters
  • Scattered at 1,800' AGL
TNCM 190539Z 1906/2006 06012KT P6SM VCSH SCT018
Issued Oct-19 @ 05:39 UTC
(4 hours ago)
Valid From Oct-19 @ 06:00 UTC
(4 hours ago)
Valid To Oct-20 @ 06:00 UTC
(in 20 hours)
Oct-19 @ 06:00 - Oct-20 @ 06:00
Wind Visibility
60° at 12 knots 10,000+ meters
Clouds
  • Scattered at 1,800' AGL